createdAt,value
2019-04-01T00:01:29.303Z,11.47
2019-04-01T00:04:53.321Z,9.30
2019-04-01T00:08:17.851Z,9.17
2019-04-01T00:11:42.213Z,8.13
2019-04-01T00:15:07.145Z,7.83
2019-04-01T00:18:31.072Z,7.97
2019-04-01T00:21:54.793Z,9.70
2019-04-01T00:25:18.711Z,11.00
2019-04-01T00:28:42.631Z,8.37
2019-04-01T00:32:06.484Z,6.60
2019-04-01T00:35:30.498Z,7.30
2019-04-01T00:38:54.244Z,5.03
2019-04-01T00:42:22.059Z,6.80
2019-04-01T00:45:47.427Z,5.40
2019-04-01T00:49:11.313Z,7.57
2019-04-01T00:52:35.191Z,5.80
2019-04-01T00:55:59.179Z,4.80
2019-04-01T00:59:23.083Z,28.40
2019-04-01T01:02:46.974Z,13.53
2019-04-01T01:06:10.889Z,5.40
2019-04-01T01:09:34.765Z,4.03
2019-04-01T01:12:58.610Z,7.00
2019-04-01T01:16:22.728Z,13.17
2019-04-01T01:19:47.158Z,13.13
2019-04-01T01:23:10.962Z,5.20
2019-04-01T01:26:34.851Z,8.47
2019-04-01T01:29:58.562Z,6.10
2019-04-01T01:33:22.401Z,7.67
2019-04-01T01:36:46.298Z,8.00
2019-04-01T01:40:10.226Z,7.40
2019-04-01T01:43:34.021Z,5.33
2019-04-01T01:46:57.932Z,6.20
2019-04-01T01:50:21.635Z,7.83
2019-04-01T01:53:45.586Z,16.23
2019-04-01T01:57:09.326Z,19.93
2019-04-01T02:00:34.136Z,6.03
2019-04-01T02:03:58.112Z,11.27
2019-04-01T02:07:22.149Z,5.60
2019-04-01T02:10:45.910Z,16.73
2019-04-01T02:14:09.746Z,11.70
2019-04-01T02:17:33.547Z,19.27
2019-04-01T02:20:57.426Z,6.77
2019-04-01T02:24:21.252Z,8.57
2019-04-01T02:27:45.014Z,5.80
2019-04-01T02:31:08.900Z,32.07
2019-04-01T02:34:32.692Z,9.10
2019-04-01T02:37:56.344Z,5.67
2019-04-01T02:41:20.082Z,6.17
2019-04-01T02:44:43.795Z,4.17
2019-04-01T02:48:07.682Z,5.53
2019-04-01T02:51:31.663Z,9.83
2019-04-01T02:54:55.518Z,4.40
2019-04-01T02:58:19.499Z,5.17
2019-04-01T03:01:43.584Z,4.77
2019-04-01T03:05:07.377Z,3.53
2019-04-01T03:08:31.180Z,2.73
2019-04-01T03:11:55.050Z,3.47
2019-04-01T03:15:18.938Z,3.27
2019-04-01T03:18:42.794Z,3.87
2019-04-01T03:22:06.762Z,6.17
2019-04-01T03:25:30.527Z,7.27
2019-04-01T03:28:54.362Z,4.47
2019-04-01T03:32:18.203Z,2.97
2019-04-01T03:35:42.076Z,5.37
2019-04-01T03:39:06.653Z,6.50
2019-04-01T03:42:30.480Z,6.87
2019-04-01T03:45:54.858Z,7.67
2019-04-01T03:49:18.763Z,33.83
2019-04-01T03:52:42.587Z,7.53
2019-04-01T03:56:07.491Z,5.77
2019-04-01T03:59:31.236Z,5.27
2019-04-01T04:02:55.133Z,4.63
2019-04-01T04:06:18.862Z,3.67
2019-04-01T04:09:42.790Z,4.87
2019-04-01T04:13:06.708Z,7.03
2019-04-01T04:16:30.996Z,5.47
2019-04-01T04:19:55.311Z,4.10
2019-04-01T04:23:19.263Z,4.30
2019-04-01T04:26:43.970Z,4.07
2019-04-01T04:30:08.223Z,6.10
2019-04-01T04:33:32.170Z,4.77
2019-04-01T04:36:56.022Z,4.53
2019-04-01T04:40:20.574Z,4.67
2019-04-01T04:43:44.435Z,6.70
2019-04-01T04:47:08.377Z,4.80
2019-04-01T04:50:32.291Z,5.23
2019-04-01T04:53:56.147Z,6.93
2019-04-01T04:57:20.486Z,5.17
2019-04-01T05:00:44.519Z,5.40
2019-04-01T05:04:08.374Z,5.50
2019-04-01T05:07:32.349Z,4.00
2019-04-01T05:10:56.399Z,8.30
2019-04-01T05:14:21.202Z,5.03
2019-04-01T05:17:44.938Z,4.77
2019-04-01T05:21:08.749Z,5.60
2019-04-01T05:24:34.067Z,21.83
2019-04-01T05:28:01.058Z,16.73
2019-04-01T05:31:27.668Z,16.70
2019-04-01T05:34:54.671Z,15.67
2019-04-01T05:38:18.566Z,13.60
2019-04-01T05:41:42.581Z,12.63
2019-04-01T05:45:09.107Z,14.47
2019-04-01T05:48:32.863Z,14.40
2019-04-01T05:51:57.099Z,13.27
2019-04-01T05:55:20.977Z,21.77
2019-04-01T05:58:44.759Z,11.53
2019-04-01T06:02:08.604Z,11.40
2019-04-01T06:05:32.443Z,10.97
2019-04-01T06:08:56.581Z,10.77
2019-04-01T06:12:24.135Z,10.90
2019-04-01T06:15:48.266Z,8.57
2019-04-01T06:19:12.073Z,7.70
2019-04-01T06:22:37.827Z,7.80
2019-04-01T06:26:01.810Z,6.63
2019-04-01T06:29:25.630Z,5.70
2019-04-01T06:32:49.577Z,8.23
2019-04-01T06:36:13.535Z,11.43
2019-04-01T06:39:37.298Z,9.00
2019-04-01T06:43:01.276Z,8.00
2019-04-01T06:46:25.229Z,7.17
2019-04-01T06:49:49.066Z,7.13
2019-04-01T06:53:13.036Z,7.30
2019-04-01T06:56:37.250Z,8.20
2019-04-01T07:00:01.132Z,10.33
2019-04-01T07:03:25.623Z,14.83
2019-04-01T07:06:49.577Z,9.17
2019-04-01T07:10:13.471Z,7.03
2019-04-01T07:13:39.976Z,5.83
2019-04-01T07:17:02.719Z,6.03
2019-04-01T07:20:26.660Z,6.53
2019-04-01T07:23:51.031Z,6.37
2019-04-01T07:27:14.952Z,5.63
2019-04-01T07:30:41.612Z,6.03
2019-04-01T07:34:04.373Z,5.23
2019-04-01T07:37:28.151Z,9.23
2019-04-01T07:40:52.488Z,5.87
2019-04-01T07:44:16.705Z,6.67
2019-04-01T07:47:40.544Z,6.17
2019-04-01T07:51:07.093Z,7.73
2019-04-01T07:54:29.942Z,5.83
2019-04-01T07:57:53.751Z,4.47
2019-04-01T08:01:17.644Z,3.10
2019-04-01T08:04:41.549Z,4.93
2019-04-01T08:08:05.658Z,5.20
2019-04-01T08:11:29.527Z,3.30
2019-04-01T08:14:53.371Z,3.17
2019-04-01T08:18:17.229Z,7.17
2019-04-01T08:21:41.273Z,3.23
2019-04-01T08:25:06.961Z,3.30
2019-04-01T08:28:30.832Z,2.43
2019-04-01T08:31:54.717Z,3.17
2019-04-01T08:35:18.814Z,3.10
2019-04-01T08:38:42.688Z,3.80
2019-04-01T08:42:06.447Z,3.60
2019-04-01T08:45:30.476Z,3.97
2019-04-01T08:48:55.176Z,2.80
2019-04-01T08:52:21.266Z,3.60
2019-04-01T08:55:45.203Z,4.23
2019-04-01T08:59:09.049Z,2.60
2019-04-01T09:02:32.921Z,8.90
2019-04-01T09:05:56.774Z,3.13
2019-04-01T09:09:21.327Z,3.33
2019-04-01T09:12:45.908Z,4.80
2019-04-01T09:16:09.808Z,4.73
2019-04-01T09:19:33.556Z,8.17
2019-04-01T09:22:59.209Z,3.33
2019-04-01T09:26:23.051Z,4.93
2019-04-01T09:29:51.067Z,5.63
2019-04-01T09:33:14.916Z,7.07
2019-04-01T09:36:40.464Z,2.70
2019-04-01T09:40:06.640Z,2.50
2019-04-01T09:43:30.451Z,5.17
2019-04-01T09:46:54.207Z,3.13
2019-04-01T09:50:17.991Z,3.27
2019-04-01T09:53:41.750Z,2.87
2019-04-01T09:57:17.277Z,3.40
2019-04-01T10:00:31.285Z,6.03
2019-04-01T10:03:55.016Z,3.50
2019-04-01T10:07:18.831Z,3.33
2019-04-01T10:10:45.058Z,3.40
2019-04-01T10:14:08.944Z,4.93
2019-04-01T10:17:32.802Z,2.57
2019-04-01T10:20:57.146Z,2.43
2019-04-01T10:24:21.077Z,2.20
2019-04-01T10:27:45.021Z,4.27
2019-04-01T10:31:08.884Z,2.07
2019-04-01T10:34:34.252Z,1.90
2019-04-01T10:37:58.303Z,2.23
2019-04-01T10:41:22.044Z,2.40
2019-04-01T10:44:45.809Z,1.90
2019-04-01T10:48:09.758Z,2.40
2019-04-01T10:51:33.459Z,3.00
2019-04-01T10:54:57.274Z,1.90
2019-04-01T10:58:21.882Z,1.70
2019-04-01T11:01:45.654Z,3.60
2019-04-01T11:05:09.781Z,19.70
2019-04-01T11:08:33.625Z,33.30
2019-04-01T11:11:57.632Z,2.53
2019-04-01T11:15:22.216Z,4.63
2019-04-01T11:18:46.044Z,5.63
2019-04-01T11:22:09.885Z,3.40
2019-04-01T11:25:33.723Z,2.30
2019-04-01T11:28:57.727Z,10.40
2019-04-01T11:32:21.672Z,2.73
2019-04-01T11:35:46.012Z,2.57
2019-04-01T11:39:12.239Z,2.40
2019-04-01T11:42:36.220Z,3.10
2019-04-01T11:46:00.413Z,3.20
2019-04-01T11:49:24.241Z,2.37
2019-04-01T11:52:48.080Z,2.73
2019-04-01T11:56:11.805Z,3.57
2019-04-01T11:59:35.622Z,2.50
2019-04-01T12:02:59.536Z,2.40
2019-04-01T12:06:23.823Z,3.00
2019-04-01T12:09:47.651Z,7.73
2019-04-01T12:13:11.788Z,7.27
2019-04-01T12:16:35.670Z,6.50
2019-04-01T12:19:59.828Z,4.23
2019-04-01T12:23:23.679Z,2.23
2019-04-01T12:26:47.450Z,2.20
2019-04-01T12:30:11.352Z,7.17
2019-04-01T12:33:35.248Z,2.10
2019-04-01T12:36:59.142Z,2.57
2019-04-01T12:40:22.856Z,3.10
2019-04-01T12:43:46.789Z,3.30
2019-04-01T12:47:10.999Z,2.80
2019-04-01T12:50:34.861Z,4.70
2019-04-01T12:53:58.611Z,2.60
2019-04-01T12:57:22.549Z,10.00
2019-04-01T13:00:46.304Z,2.97
2019-04-01T13:04:10.119Z,2.93
2019-04-01T13:07:34.046Z,3.33
2019-04-01T13:10:57.834Z,2.60
2019-04-01T13:14:21.722Z,2.77
2019-04-01T13:17:45.629Z,2.57
2019-04-01T13:21:10.998Z,2.80
2019-04-01T13:24:34.959Z,4.57
2019-04-01T13:27:58.851Z,2.87
2019-04-01T13:31:23.928Z,2.30
2019-04-01T13:34:47.900Z,2.47
2019-04-01T13:38:11.845Z,2.40
2019-04-01T13:41:42.794Z,64.53
2019-04-01T13:45:07.226Z,6.60
2019-04-01T13:48:31.406Z,4.07
2019-04-01T13:51:55.194Z,3.07
2019-04-01T13:55:53.457Z,3.07
2019-04-01T13:59:17.620Z,6.80
2019-04-01T14:02:41.631Z,3.47
2019-04-01T14:06:05.538Z,3.13
2019-04-01T14:09:30.895Z,2.57
2019-04-01T14:12:55.006Z,2.60
2019-04-01T14:16:18.877Z,2.23
2019-04-01T14:19:42.659Z,2.33
2019-04-01T14:23:06.432Z,6.87
2019-04-01T14:26:30.182Z,5.27
2019-04-01T14:29:53.960Z,7.33
2019-04-01T14:33:17.806Z,10.90
2019-04-01T14:36:42.304Z,12.27
2019-04-01T14:40:08.569Z,2.80
2019-04-01T14:43:32.727Z,2.10
2019-04-01T14:46:56.923Z,2.60
2019-04-01T14:50:20.871Z,3.60
2019-04-01T14:53:44.700Z,4.50
2019-04-01T14:57:08.529Z,2.70
2019-04-01T15:00:32.513Z,3.53
2019-04-01T15:03:56.638Z,2.70
2019-04-01T15:07:20.689Z,3.67
2019-04-01T15:10:44.672Z,5.70
2019-04-01T15:14:08.994Z,3.00
2019-04-01T15:17:35.305Z,7.07
2019-04-01T15:20:58.394Z,2.80
2019-04-01T15:24:22.401Z,2.40
2019-04-01T15:27:46.267Z,2.13
2019-04-01T15:31:10.212Z,6.90
2019-04-01T15:34:34.286Z,3.53
2019-04-01T15:38:00.561Z,2.50
2019-04-01T15:41:26.757Z,4.27
2019-04-01T15:44:49.854Z,3.87
2019-04-01T15:48:13.757Z,3.40
2019-04-01T15:51:37.613Z,2.77
2019-04-01T15:55:02.403Z,2.40
2019-04-01T15:58:26.903Z,2.60
2019-04-01T16:01:50.818Z,3.70
2019-04-01T16:05:16.035Z,2.77
2019-04-01T16:08:41.819Z,4.43
2019-04-01T16:12:06.064Z,4.10
2019-04-01T16:15:32.025Z,17.50
2019-04-01T16:18:55.316Z,12.13
2019-04-01T16:22:19.158Z,22.80
2019-04-01T16:25:43.876Z,13.33
2019-04-01T16:29:07.622Z,3.67
2019-04-01T16:32:31.445Z,15.93
2019-04-01T16:35:55.315Z,40.90
2019-04-01T16:39:19.276Z,27.23
2019-04-01T16:42:43.168Z,9.57
2019-04-01T16:46:07.111Z,14.80
2019-04-01T16:49:30.923Z,4.03
2019-04-01T16:52:54.794Z,7.90
2019-04-01T16:56:18.641Z,6.50
2019-04-01T16:59:42.512Z,8.43
2019-04-01T17:03:06.330Z,3.83
2019-04-01T17:06:30.121Z,4.73
2019-04-01T17:09:58.226Z,5.17
2019-04-01T17:13:27.190Z,5.07
2019-04-01T17:16:51.478Z,8.50
2019-04-01T17:20:16.750Z,159.07
2019-04-01T17:23:42.181Z,85.90
2019-04-01T17:27:25.906Z,98.87
2019-04-01T17:30:50.150Z,11.67
2019-04-01T17:34:14.041Z,70.23
2019-04-01T17:37:38.089Z,76.93
2019-04-01T17:41:02.766Z,64.30
2019-04-01T17:44:26.651Z,35.93
2019-04-01T17:47:50.540Z,118.37
2019-04-01T17:51:14.412Z,43.33
2019-04-01T17:54:40.019Z,249.07
2019-04-01T17:58:04.674Z,156.17
2019-04-01T18:01:28.579Z,169.20
2019-04-01T18:04:52.402Z,122.67
2019-04-01T18:08:16.373Z,97.53
2019-04-01T18:11:40.461Z,64.37
2019-04-01T18:15:05.156Z,58.63
2019-04-01T18:18:29.245Z,53.97
2019-04-01T18:21:53.294Z,24.63
2019-04-01T18:25:18.609Z,28.70
2019-04-01T18:28:42.399Z,12.23
2019-04-01T18:32:06.208Z,15.73
2019-04-01T18:35:30.048Z,16.77
2019-04-01T18:38:53.953Z,16.53
2019-04-01T18:42:17.764Z,12.03
2019-04-01T18:45:41.717Z,11.43
2019-04-01T18:49:06.210Z,13.37
2019-04-01T18:52:30.035Z,13.43
2019-04-01T18:55:53.881Z,12.90
2019-04-01T18:59:17.692Z,11.47
2019-04-01T19:02:42.233Z,12.23
2019-04-01T19:06:09.182Z,12.63
2019-04-01T19:09:33.824Z,13.80
2019-04-01T19:13:05.655Z,14.47
2019-04-01T19:16:23.378Z,15.03
2019-04-01T19:19:48.790Z,15.70
2019-04-01T19:23:12.904Z,16.27
2019-04-01T19:26:36.704Z,14.40
2019-04-01T19:30:01.256Z,14.03
2019-04-01T19:33:25.089Z,13.53
2019-04-01T19:36:48.928Z,14.40
2019-04-01T19:40:14.220Z,15.73
2019-04-01T19:43:39.469Z,16.33
2019-04-01T19:47:03.352Z,17.50
2019-04-01T19:50:27.191Z,14.73
2019-04-01T19:53:51.006Z,16.37
2019-04-01T19:57:15.887Z,13.97
2019-04-01T20:00:39.996Z,15.50
2019-04-01T20:04:07.182Z,16.33
2019-04-01T20:07:31.209Z,17.00
2019-04-01T20:10:55.106Z,18.27
2019-04-01T20:14:18.997Z,16.70
2019-04-01T20:17:43.833Z,16.07
2019-04-01T20:21:07.997Z,23.13
2019-04-01T20:24:31.881Z,26.90
2019-04-01T20:27:55.729Z,15.50
2019-04-01T20:31:19.604Z,14.57
2019-04-01T20:34:56.093Z,15.97
2019-04-01T20:38:08.898Z,10.83
2019-04-01T20:41:32.673Z,12.63
2019-04-01T20:44:56.776Z,13.07
2019-04-01T20:48:20.649Z,12.17
2019-04-01T20:51:44.982Z,10.97
2019-04-01T20:55:09.111Z,11.33
2019-04-01T20:58:32.974Z,10.03
2019-04-01T21:01:56.887Z,10.33
2019-04-01T21:05:20.796Z,10.83
2019-04-01T21:08:44.902Z,8.13
2019-04-01T21:12:08.874Z,11.37
2019-04-01T21:15:32.754Z,10.33
2019-04-01T21:18:56.739Z,9.90
2019-04-01T21:22:20.726Z,9.20
2019-04-01T21:25:45.616Z,7.77
2019-04-01T21:29:10.418Z,8.63
2019-04-01T21:32:35.347Z,5.93
2019-04-01T21:35:59.216Z,6.93
2019-04-01T21:39:23.087Z,5.63
2019-04-01T21:42:47.586Z,5.50
2019-04-01T21:46:11.541Z,4.30
2019-04-01T21:49:36.797Z,4.70
2019-04-01T21:53:01.223Z,5.13
2019-04-01T21:56:25.917Z,4.00
2019-04-01T21:59:50.119Z,3.87
2019-04-01T22:03:14.147Z,3.67
2019-04-01T22:06:37.798Z,3.20
2019-04-01T22:10:02.412Z,3.37
2019-04-01T22:13:27.459Z,2.77
2019-04-01T22:16:51.599Z,2.53
2019-04-01T22:20:15.438Z,2.87
2019-04-01T22:23:39.346Z,2.73
2019-04-01T22:27:03.317Z,3.67
2019-04-01T22:30:27.121Z,3.60
2019-04-01T22:33:50.978Z,3.10
2019-04-01T22:37:26.387Z,3.93
2019-04-01T22:40:40.477Z,3.80
2019-04-01T22:44:04.464Z,3.77
2019-04-01T22:47:28.441Z,2.80
2019-04-01T22:50:52.391Z,4.00
2019-04-01T22:54:16.357Z,3.37
2019-04-01T22:57:40.023Z,3.67
2019-04-01T23:01:03.810Z,4.50
2019-04-01T23:04:27.563Z,3.50
2019-04-01T23:07:52.137Z,3.93
2019-04-01T23:11:16.223Z,3.67
2019-04-01T23:14:40.007Z,3.17
2019-04-01T23:18:06.237Z,4.17
2019-04-01T23:21:31.332Z,3.73
2019-04-01T23:24:57.248Z,3.90
2019-04-01T23:28:21.305Z,4.00
2019-04-01T23:31:45.148Z,4.37
2019-04-01T23:35:08.928Z,3.47
2019-04-01T23:38:32.843Z,3.30
2019-04-01T23:41:56.763Z,3.47
2019-04-01T23:45:21.108Z,3.43
2019-04-01T23:48:45.226Z,2.40
2019-04-01T23:52:08.967Z,2.93
2019-04-01T23:55:32.836Z,3.20
2019-04-01T23:58:56.909Z,2.83
